Time;durP1;ratioP1;P1;durP2;ratioP2;P2;SDS_P1;SDS_P2;PMS_P1;PMS_P2;Temp;Humidity;BMP_temperature;BMP_pressure;BME280_temperature;BME280_humidity;BME280_pressure;Samples;Min_cycle;Max_cycle;Signal;HPM_P1;HPM_P2
2021/12/08 00:00:57;;;;;;;6.37;4.60;;;-3273.10;90.60;;;;;;6226912;28;20230;-60
2021/12/08 00:03:58;;;;;;;8.83;5.60;;;-3273.10;90.00;;;;;;6226574;28;20195;-60
2021/12/08 00:06:58;;;;;;;8.30;4.40;;;-3273.00;90.10;;;;;;6210287;28;20223;-60
2021/12/08 00:10:28;;;;;;;8.30;5.20;;;-3272.90;90.00;;;;;;6226771;28;20247;-60
2021/12/08 00:13:35;;;;;;;7.97;4.60;;;-3272.90;89.90;;;;;;6227653;28;20192;-60
2021/12/08 00:16:36;;;;;;;8.10;4.83;;;-3272.80;90.00;;;;;;6234828;28;20714;-60
2021/12/08 00:19:37;;;;;;;8.00;4.47;;;-3272.80;90.00;;;;;;6208600;28;20227;-60
2021/12/08 00:22:38;;;;;;;6.27;4.60;;;-3272.80;89.90;;;;;;6194795;28;20196;-60
2021/12/08 00:25:39;;;;;;;6.47;4.47;;;-3272.80;90.00;;;;;;6193103;28;20200;-60
2021/12/08 00:28:40;;;;;;;5.60;4.03;;;-3272.80;89.90;;;;;;6203296;28;20236;-60
2021/12/08 00:31:45;;;;;;;7.60;5.10;;;-3272.80;90.20;;;;;;6234452;28;20608;-59
2021/12/08 00:34:47;;;;;;;8.10;4.47;;;-3272.80;90.30;;;;;;6217971;28;20642;-60
2021/12/08 00:37:48;;;;;;;7.47;5.07;;;-3272.80;90.40;;;;;;6217750;28;20636;-60
2021/12/08 00:40:51;;;;;;;7.00;4.80;;;-3272.70;90.40;;;;;;6220893;28;20226;-60
2021/12/08 00:43:51;;;;;;;6.83;4.80;;;-3272.70;90.20;;;;;;6245677;28;20230;-60
2021/12/08 00:46:52;;;;;;;8.87;4.70;;;-3272.70;90.10;;;;;;6226086;28;20188;-59
2021/12/08 00:49:53;;;;;;;6.67;4.57;;;-3272.70;89.90;;;;;;6192613;28;20202;-60
2021/12/08 00:52:56;;;;;;;6.70;4.93;;;-3272.60;89.70;;;;;;6209491;28;20196;-60
2021/12/08 00:55:57;;;;;;;8.07;5.30;;;-3272.60;89.60;;;;;;6225494;28;20200;-60
2021/12/08 00:58:58;;;;;;;10.37;5.53;;;-3272.60;89.40;;;;;;6225019;28;20676;-60
2021/12/08 01:02:02;;;;;;;9.80;5.17;;;-3272.50;89.50;;;;;;6225418;28;20191;-60
2021/12/08 01:05:03;;;;;;;9.80;4.83;;;-3272.50;89.50;;;;;;6203665;28;20650;-60
2021/12/08 01:08:06;;;;;;;8.60;4.63;;;-3272.50;89.40;;;;;;6232853;28;20602;-60
2021/12/08 01:11:12;;;;;;;6.40;4.57;;;-3272.40;89.50;;;;;;6242415;28;20630;-60
2021/12/08 01:14:13;;;;;;;7.57;5.27;;;-3272.40;89.70;;;;;;6250047;28;20632;-60
2021/12/08 01:17:14;;;;;;;10.87;5.27;;;-3272.30;89.70;;;;;;6200387;28;21034;-60
2021/12/08 01:20:16;;;;;;;6.00;4.90;;;-3272.30;89.70;;;;;;6208969;28;20219;-60
2021/12/08 01:23:18;;;;;;;11.07;5.93;;;-3272.30;89.70;;;;;;6232970;28;20625;-60
2021/12/08 01:26:19;;;;;;;10.27;5.87;;;-3272.20;89.70;;;;;;6233794;28;20246;-60
2021/12/08 01:29:20;;;;;;;9.10;6.40;;;-3272.20;89.70;;;;;;6216568;28;20610;-60
2021/12/08 01:32:20;;;;;;;10.53;6.50;;;-3272.20;89.90;;;;;;6216321;28;20678;-60
2021/12/08 01:35:22;;;;;;;9.60;5.60;;;-3272.20;90.20;;;;;;6215874;28;20205;-60
2021/12/08 01:38:23;;;;;;;9.73;5.90;;;-3272.30;90.10;;;;;;6184010;28;20193;-60
2021/12/08 01:41:25;;;;;;;9.93;5.23;;;-3272.30;89.90;;;;;;6192721;28;20664;-59
2021/12/08 01:47:45;;;;;;;7.60;5.23;;;-3272.40;89.50;;;;;;6233201;28;20703;-61
2021/12/08 01:50:52;;;;;;;8.60;5.27;;;-3272.30;89.70;;;;;;6235516;28;20670;-61
2021/12/08 01:53:56;;;;;;;7.80;5.27;;;-3272.30;89.20;;;;;;6240597;28;20193;-60
2021/12/08 01:56:57;;;;;;;7.47;4.53;;;-3272.40;88.90;;;;;;6224095;28;20251;-60
2021/12/08 01:59:58;;;;;;;7.00;3.80;;;-3272.20;89.10;;;;;;6208069;28;20700;-59
2021/12/08 02:02:59;;;;;;;5.53;3.77;;;-3272.10;89.20;;;;;;6224731;28;20614;-60
2021/12/08 02:06:03;;;;;;;6.43;4.27;;;-3272.00;89.30;;;;;;6212659;28;20287;-60
2021/12/08 02:09:09;;;;;;;10.43;4.83;;;-3271.90;89.40;;;;;;6184516;28;20614;-60
2021/12/08 02:12:10;;;;;;;9.67;4.50;;;-3271.90;89.60;;;;;;6242873;28;20680;-60
2021/12/08 02:15:13;;;;;;;10.27;4.07;;;-3271.90;89.80;;;;;;6212467;28;20714;-60
2021/12/08 02:18:16;;;;;;;7.07;4.43;;;-3271.80;89.80;;;;;;6183551;28;20202;-60
2021/12/08 02:21:33;;;;;;;5.97;4.10;;;-3271.80;90.10;;;;;;6190188;28;20647;-60
2021/12/08 02:24:34;;;;;;;9.97;5.07;;;-3271.90;90.20;;;;;;6216544;28;20637;-60
2021/12/08 02:27:35;;;;;;;5.67;4.10;;;-3271.90;90.20;;;;;;6218762;28;20610;-60
2021/12/08 02:47:13;;;;;;;5.30;3.70;;;-3271.70;89.80;;;;;;6235905;28;20638;-60
2021/12/08 02:50:14;;;;;;;5.53;3.83;;;-3271.70;89.80;;;;;;6217724;28;20665;-60
2021/12/08 02:53:15;;;;;;;6.73;4.10;;;-3271.80;89.90;;;;;;6207190;28;20635;-60
2021/12/08 02:56:17;;;;;;;5.97;4.10;;;-3271.70;89.50;;;;;;6207680;28;20248;-60
2021/12/08 02:59:18;;;;;;;5.50;4.50;;;-3271.70;89.40;;;;;;6223962;28;20650;-60
2021/12/08 03:02:19;;;;;;;8.00;4.13;;;-3271.70;89.40;;;;;;6207570;28;21156;-60
2021/12/08 03:05:20;;;;;;;6.93;4.80;;;-3271.70;89.30;;;;;;6210396;28;20204;-59
2021/12/08 03:08:21;;;;;;;8.33;4.63;;;-3271.80;90.20;;;;;;6220077;28;20190;-59
2021/12/08 03:11:22;;;;;;;7.40;4.50;;;-3271.80;89.40;;;;;;6220297;28;20610;-56
2021/12/08 03:14:25;;;;;;;6.07;4.23;;;-3271.80;89.70;;;;;;6236472;28;20194;-59
2021/12/08 03:17:26;;;;;;;8.13;4.80;;;-3271.70;89.60;;;;;;6220309;28;20617;-59
2021/12/08 03:20:38;;;;;;;7.33;4.87;;;-3271.80;89.50;;;;;;6217629;28;20724;-61
2021/12/08 03:27:20;;;;;;;5.73;3.90;;;-3271.70;89.20;;;;;;6187013;28;20623;-58
2021/12/08 03:30:33;;;;;;;6.37;4.43;;;-3271.70;89.30;;;;;;6186455;28;20603;-57
2021/12/08 03:33:34;;;;;;;6.77;4.17;;;-3272.00;89.70;;;;;;6201814;28;20653;-54
2021/12/08 03:36:35;;;;;;;9.03;4.70;;;-3271.80;88.80;;;;;;6182899;28;20625;-54
2021/12/08 03:39:41;;;;;;;6.57;4.07;;;-3272.10;89.30;;;;;;6227588;28;20724;-59
2021/12/08 03:42:43;;;;;;;7.77;4.87;;;-3271.90;88.60;;;;;;6227775;28;21194;-59
2021/12/08 03:45:48;;;;;;;6.80;3.77;;;-3272.10;89.00;;;;;;6235547;28;20619;-59
2021/12/08 03:48:50;;;;;;;6.67;4.20;;;-3271.90;88.40;;;;;;6238213;28;20641;-58
2021/12/08 03:51:51;;;;;;;6.03;4.13;;;-3271.70;88.80;;;;;;6178424;28;20635;-58
2021/12/08 03:54:52;;;;;;;5.03;4.23;;;-3271.70;88.80;;;;;;6214752;28;20727;-59
2021/12/08 03:57:53;;;;;;;8.30;4.73;;;-3271.70;89.10;;;;;;6221054;28;20266;-58
2021/12/08 04:00:57;;;;;;;4.80;3.63;;;-3271.60;89.40;;;;;;6204364;28;20318;-60
2021/12/08 04:04:06;;;;;;;6.47;4.47;;;-3271.60;89.80;;;;;;6251099;28;20618;-60
2021/12/08 04:07:08;;;;;;;6.40;4.13;;;-3271.60;89.80;;;;;;6213876;28;20624;-60
2021/12/08 04:10:18;;;;;;;5.33;3.83;;;-3271.60;90.00;;;;;;6235202;28;20633;-60
2021/12/08 04:13:23;;;;;;;7.33;4.17;;;-3271.60;90.00;;;;;;6235123;28;20621;-60
2021/12/08 04:16:30;;;;;;;7.33;4.57;;;-3271.60;89.70;;;;;;6233274;28;20641;-60
2021/12/08 04:19:31;;;;;;;6.23;4.13;;;-3271.60;89.50;;;;;;6246558;28;20709;-57
2021/12/08 04:22:37;;;;;;;6.27;3.97;;;-3271.60;89.50;;;;;;6209944;28;20691;-58
2021/12/08 04:25:40;;;;;;;6.10;4.07;;;-3271.50;89.30;;;;;;6226852;28;21132;-58
2021/12/08 04:28:41;;;;;;;5.77;3.60;;;-3271.40;89.40;;;;;;6226135;28;20630;-58
2021/12/08 04:31:45;;;;;;;5.90;3.97;;;-3271.40;89.40;;;;;;6215156;28;20621;-59
2021/12/08 04:34:47;;;;;;;;;;;-3271.30;89.40;;;;;;6210584;28;20640;-59
2021/12/08 04:37:53;;;;;;;;;;;-3271.30;89.40;;;;;;6208068;28;19909;-59
2021/12/08 04:41:03;;;;;;;;;;;-3271.20;89.50;;;;;;6209361;28;19945;-60
2021/12/08 05:10:06;;;;;;;;;;;-3271.20;90.20;;;;;;6228254;28;19981;-60
2021/12/08 05:13:10;;;;;;;;;;;-3271.20;90.20;;;;;;6242273;28;19913;-60
2021/12/08 05:16:12;;;;;;;;;;;-3271.20;90.10;;;;;;6218794;28;19916;-58
2021/12/08 05:19:14;;;;;;;;;;;-3271.10;90.00;;;;;;6233657;28;19944;-58
2021/12/08 05:22:18;;;;;;;;;;;-3271.20;90.10;;;;;;6250491;28;19916;-57
2021/12/08 05:25:23;;;;;;;;;;;-3271.20;89.50;;;;;;6245928;28;19968;-59
2021/12/08 05:28:24;;;;;;;;;;;-3271.20;89.50;;;;;;6233382;28;19913;-59
2021/12/08 05:31:26;;;;;;;;;;;-3271.10;89.50;;;;;;6225151;28;19921;-59
2021/12/08 05:34:27;;;;;;;;;;;-3271.10;89.40;;;;;;6209826;28;19913;-59
2021/12/08 05:37:28;;;;;;;;;;;-3271.20;89.10;;;;;;6208688;28;19932;-59
2021/12/08 05:40:31;;;;;;;;;;;-3271.20;88.50;;;;;;6216460;28;19921;-59
2021/12/08 05:43:32;;;;;;;;;;;-3271.20;88.40;;;;;;6208935;28;19917;-59
2021/12/08 05:46:34;;;;;;;;;;;-3271.20;88.40;;;;;;6225211;28;19967;-59
2021/12/08 05:49:35;;;;;;;;;;;-3271.10;88.70;;;;;;6209314;28;19916;-59
2021/12/08 05:52:36;;;;;;;;;;;-3271.00;88.90;;;;;;6208039;28;19910;-59
2021/12/08 05:55:37;;;;;;;;;;;-3271.00;89.10;;;;;;6242785;28;19917;-60
2021/12/08 05:58:38;;;;;;;;;;;-3271.00;89.40;;;;;;6248853;28;19921;-60
2021/12/08 06:01:39;;;;;;;;;;;-3271.10;90.20;;;;;;6232860;28;19909;-59
2021/12/08 06:04:40;;;;;;;;;;;-3271.10;89.80;;;;;;6250003;28;19913;-60
2021/12/08 06:07:42;;;;;;;;;;;-3271.10;89.90;;;;;;6194122;28;19913;-60
2021/12/08 06:10:43;;;;;;;;;;;-3271.10;89.70;;;;;;6224539;28;19963;-57
2021/12/08 06:13:46;;;;;;;;;;;-3271.10;89.70;;;;;;6208237;28;19913;-59
2021/12/08 06:16:47;;;;;;;;;;;-3271.20;89.50;;;;;;6223756;28;19913;-59
2021/12/08 06:19:48;;;;;;;;;;;-3271.10;89.50;;;;;;6213008;28;19935;-59
2021/12/08 06:22:50;;;;;;;;;;;-3271.20;89.60;;;;;;6207794;28;19909;-60
2021/12/08 06:25:51;;;;;;;;;;;-3271.10;89.30;;;;;;6220859;28;19913;-60
2021/12/08 06:28:52;;;;;;;;;;;-3271.20;89.10;;;;;;6207644;28;19921;-60
2021/12/08 06:31:54;;;;;;;;;;;-3271.10;88.70;;;;;;6198018;28;24996;-60
2021/12/08 06:34:56;;;;;;;;;;;-3271.10;88.70;;;;;;6249246;28;19909;-60
2021/12/08 06:37:57;;;;;;;;;;;-3271.10;88.60;;;;;;6208015;28;19956;-60
2021/12/08 06:41:02;;;;;;;;;;;-3271.10;88.60;;;;;;6222575;28;19917;-60
2021/12/08 06:44:05;;;;;;;;;;;-3271.00;88.60;;;;;;6209900;28;19928;-60
2021/12/08 06:47:07;;;;;;;;;;;-3271.00;88.80;;;;;;6230210;28;19932;-60
2021/12/08 06:50:12;;;;;;;;;;;-3271.10;89.20;;;;;;6198051;28;19913;-61
2021/12/08 06:53:13;;;;;;;;;;;-3271.10;89.60;;;;;;6229266;28;19916;-61
2021/12/08 06:56:19;;;;;;;;;;;-3271.30;89.30;;;;;;6238195;28;19917;-61
2021/12/08 06:59:22;;;;;;;;;;;-3271.30;89.40;;;;;;6227381;28;19920;-59
2021/12/08 07:09:22;;;;;;;;;;;-3271.30;89.30;;;;;;6224825;28;19913;-59
2021/12/08 07:12:52;;;;;;;;;;;-3271.40;89.20;;;;;;6233995;28;20273;-59
2021/12/08 07:15:56;;;;;;;;;;;-3271.50;89.30;;;;;;6212181;28;19909;-59
2021/12/08 07:19:08;;;;;;;;;;;-3271.50;88.70;;;;;;6237288;28;19916;-58
2021/12/08 07:22:12;;;;;;;;;;;-3271.50;88.70;;;;;;6237167;28;19909;-59
2021/12/08 07:25:14;;;;;;;;;;;-3271.60;88.70;;;;;;6223084;28;19909;-57
2021/12/08 07:28:16;;;;;;;;;;;-3271.60;88.60;;;;;;6228521;28;19959;-55
2021/12/08 07:31:25;;;;;;;;;;;-3271.60;88.70;;;;;;6233420;28;19927;-60
2021/12/08 07:34:26;;;;;;;;;;;-3271.60;88.60;;;;;;6233785;28;19909;-61
2021/12/08 07:37:29;;;;;;;;;;;-3271.60;88.50;;;;;;6222447;28;19939;-58
2021/12/08 07:40:36;;;;;;;;;;;-3271.60;88.60;;;;;;6219818;28;19917;-58
2021/12/08 07:43:39;;;;;;;;;;;-3271.70;88.60;;;;;;6241208;28;19910;-56
2021/12/08 07:46:52;;;;;;;;;;;-3271.70;88.80;;;;;;6252266;28;19951;-61
2021/12/08 07:49:56;;;;;;;;;;;-3271.70;88.90;;;;;;6235729;28;19909;-57
2021/12/08 07:52:57;;;;;;;;;;;-3271.80;88.80;;;;;;6243703;28;19909;-57
2021/12/08 07:56:03;;;;;;;;;;;-3271.90;89.00;;;;;;6260840;28;19960;-57
2021/12/08 07:59:05;;;;;;;;;;;-3271.90;89.10;;;;;;6210327;28;20008;-60
2021/12/08 08:02:07;;;;;;;;;;;-3272.00;89.20;;;;;;6211610;28;19957;-58
2021/12/08 08:05:09;;;;;;;;;;;-3272.20;89.40;;;;;;6210638;28;19944;-58
2021/12/08 08:08:12;;;;;;;;;;;-3272.20;89.40;;;;;;6211273;28;20055;-58
2021/12/08 08:11:17;;;;;;;;;;;-3272.30;89.50;;;;;;6210809;28;19971;-58
2021/12/08 08:14:19;;;;;;;;;;;-3272.30;89.50;;;;;;6193444;28;19919;-57
2021/12/08 08:17:30;;;;;;;;;;;-3272.40;89.30;;;;;;6238222;28;19940;-58
2021/12/08 08:20:32;;;;;;;;;;;-3272.50;89.30;;;;;;6230996;28;19913;-59
2021/12/08 08:23:33;;;;;;;;;;;-3272.60;89.10;;;;;;6216028;28;19909;-59
2021/12/08 08:26:35;;;;;;;;;;;-3272.70;89.10;;;;;;6214695;28;19916;-58
2021/12/08 08:29:36;;;;;;;;;;;-3272.80;88.90;;;;;;6212069;28;19910;-57
2021/12/08 08:32:39;;;;;;;;;;;-3272.90;88.40;;;;;;6220386;28;19909;-57
2021/12/08 08:35:51;;;;;;;;;;;-3273.00;88.50;;;;;;6219787;28;19964;-58
2021/12/08 08:38:57;;;;;;;;;;;-3273.10;88.40;;;;;;6217785;28;19956;-55
2021/12/08 08:42:01;;;;;;;;;;;-3273.10;88.20;;;;;;6221903;28;19913;-58
2021/12/08 08:45:12;;;;;;;;;;;-3273.20;88.00;;;;;;6216886;28;19909;-57
2021/12/08 08:48:14;;;;;;;;;;;-3273.20;87.90;;;;;;6218218;28;19913;-58
2021/12/08 08:51:15;;;;;;;;;;;-3273.20;87.70;;;;;;6223428;28;19914;-58
2021/12/08 08:54:21;;;;;;;;;;;-3273.30;87.60;;;;;;6243375;28;19956;-57
2021/12/08 08:57:34;;;;;;;;;;;-3273.40;87.70;;;;;;6210098;28;19945;-58
2021/12/08 09:00:41;;;;;;;;;;;-3273.50;87.70;;;;;;6213928;28;19920;-58
2021/12/08 09:03:43;;;;;;;;;;;-3273.50;87.30;;;;;;6214990;28;20004;-58
2021/12/08 09:06:46;;;;;;;;;;;-3273.70;87.10;;;;;;6220005;28;19916;-59
2021/12/08 09:09:47;;;;;;;;;;;-3273.70;86.90;;;;;;6222123;28;19913;-58
2021/12/08 09:12:51;;;;;;;;;;;-3273.90;86.60;;;;;;6217896;28;19921;-58
2021/12/08 09:15:54;;;;;;;;;;;-3274.00;86.50;;;;;;6219141;28;19909;-55
2021/12/08 09:19:03;;;;;;;;;;;-3274.10;86.20;;;;;;6221546;28;19960;-53
2021/12/08 09:22:11;;;;;;;;;;;-3274.30;85.50;;;;;;6232656;28;19916;-53
2021/12/08 09:25:12;;;;;;;;;;;-3274.50;84.70;;;;;;6250894;28;20000;-49
2021/12/08 09:28:15;;;;;;;;;;;-3274.60;84.90;;;;;;6231430;28;19909;-56
2021/12/08 09:31:19;;;;;;;;;;;-3274.80;84.60;;;;;;6236492;28;19909;-56
2021/12/08 09:34:23;;;;;;;;;;;-3275.00;83.70;;;;;;6251829;28;19913;-50
2021/12/08 09:37:27;;;;;;;;;;;-3275.30;82.40;;;;;;6216643;28;20028;-58
2021/12/08 09:40:32;;;;;;;;;;;-3275.50;82.30;;;;;;6258257;28;19999;-53
2021/12/08 09:43:33;;;;;;;;;;;-3275.80;82.40;;;;;;6233516;28;19944;-53
2021/12/08 09:46:39;;;;;;;;;;;-3276.00;81.60;;;;;;6238894;28;19931;-56
2021/12/08 09:49:40;;;;;;;;;;;-3276.20;80.40;;;;;;6226917;28;19915;-56
2021/12/08 09:52:43;;;;;;;;;;;-3276.50;79.40;;;;;;6241585;28;19909;-57
2021/12/08 09:55:43;;;;;;;;;;;0.00;77.60;;;;;;6208466;28;19917;-56
2021/12/08 09:58:44;;;;;;;;;;;0.10;76.50;;;;;;6224126;28;19917;-58
2021/12/08 10:01:45;;;;;;;;;;;0.20;75.70;;;;;;6258306;28;19913;-56
2021/12/08 10:04:46;;;;;;;;;;;0.40;75.10;;;;;;6221270;28;19949;-55
2021/12/08 10:07:48;;;;;;;;;;;0.70;75.00;;;;;;6225821;28;19916;-57
2021/12/08 10:10:48;;;;;;;;;;;0.80;75.30;;;;;;6218755;28;19913;-56
2021/12/08 10:13:49;;;;;;;;;;;0.90;73.10;;;;;;6218942;28;19999;-55
2021/12/08 10:16:51;;;;;;;;;;;0.90;73.10;;;;;;6217064;28;20010;-56
2021/12/08 10:20:18;;;;;;;;;;;1.20;73.80;;;;;;6246262;28;19913;-58
2021/12/08 10:23:21;;;;;;;;;;;1.30;72.10;;;;;;6233717;28;19913;-58
2021/12/08 10:26:25;;;;;;;;;;;1.30;71.40;;;;;;6232783;28;19913;-57
2021/12/08 10:29:27;;;;;;;;;;;1.30;70.90;;;;;;6232595;28;19917;-57
2021/12/08 10:32:37;;;;;;;;;;;1.30;72.30;;;;;;6225158;28;19910;-57
2021/12/08 10:35:41;;;;;;;;;;;1.40;72.20;;;;;;6224431;28;19914;-56
2021/12/08 10:38:42;;;;;;;;;;;1.30;72.00;;;;;;6232648;28;20279;-57
2021/12/08 10:41:45;;;;;;;;;;;1.20;71.70;;;;;;6231891;28;20007;-58
2021/12/08 10:44:51;;;;;;;;;;;1.20;72.80;;;;;;6259956;28;19909;-56
2021/12/08 10:47:57;;;;;;;;;;;1.30;73.30;;;;;;6257174;28;19916;-57
2021/12/08 10:54:27;;;;;;;;;;;1.20;73.20;;;;;;6200669;28;19953;-60
2021/12/08 10:57:30;;;;;;;;;;;1.10;74.10;;;;;;6213418;28;19921;-61
2021/12/08 11:00:33;;;;;;;;;;;1.10;73.30;;;;;;6212074;28;19920;-61
2021/12/08 11:03:36;;;;;;;;;;;1.20;73.10;;;;;;6226203;28;19913;-59
2021/12/08 11:06:38;;;;;;;;;;;1.10;73.30;;;;;;6223382;28;19913;-59
2021/12/08 11:09:41;;;;;;;;;;;1.30;74.30;;;;;;6214644;28;19917;-59
2021/12/08 11:12:41;;;;;;;;;;;1.40;73.70;;;;;;6249844;28;19909;-59
2021/12/08 11:15:42;;;;;;;;;;;1.60;73.20;;;;;;6202938;28;20003;-59
2021/12/08 11:18:48;;;;;;;;;;;1.80;71.40;;;;;;6207569;28;19916;-60
2021/12/08 11:21:54;;;;;;;;;;;1.90;71.80;;;;;;6216419;28;19910;-60
2021/12/08 11:24:57;;;;;;;;;;;2.00;70.40;;;;;;6233336;28;19909;-60
2021/12/08 11:28:17;;;;;;;;;;;1.90;72.40;;;;;;6198651;28;19926;-58
2021/12/08 11:31:18;;;;;;;;;;;1.90;72.00;;;;;;6235240;28;19909;-57
2021/12/08 11:34:24;;;;;;;;;;;1.90;71.00;;;;;;6207570;28;19914;-58
2021/12/08 11:37:26;;;;;;;;;;;1.80;71.80;;;;;;6225108;28;19923;-59
2021/12/08 11:40:32;;;;;;;;;;;1.80;72.80;;;;;;6210951;28;19914;-59
2021/12/08 11:43:33;;;;;;;;;;;1.90;72.80;;;;;;6235917;28;19951;-60
2021/12/08 11:46:37;;;;;;;;;;;2.10;70.30;;;;;;6220211;28;19909;-59
2021/12/08 11:49:45;;;;;;;;;;;2.00;70.50;;;;;;6238081;28;19909;-59
2021/12/08 11:52:50;;;;;;;;;;;2.00;69.70;;;;;;6228751;28;19917;-59
2021/12/08 11:55:50;;;;;;;;;;;1.90;69.40;;;;;;6221368;28;19924;-59
2021/12/08 11:58:55;;;;;;;;;;;1.90;67.90;;;;;;6218008;28;20016;-59
2021/12/08 12:01:55;;;;;;;;;;;1.90;69.80;;;;;;6235038;28;19909;-60
2021/12/08 12:04:57;;;;;;;;;;;1.90;69.30;;;;;;6204036;28;19913;-59
2021/12/08 12:07:57;;;;;;;;;;;1.80;69.00;;;;;;6217107;28;19913;-58
2021/12/08 12:11:01;;;;;;;;;;;1.70;68.90;;;;;;6248083;28;19921;-56
2021/12/08 12:14:02;;;;;;;;;;;1.70;70.00;;;;;;6234555;28;20297;-59
2021/12/08 12:17:03;;;;;;;;;;;1.80;69.20;;;;;;6218657;28;19917;-60
2021/12/08 12:20:06;;;;;;;;;;;1.60;66.80;;;;;;6227205;28;19912;-59
2021/12/08 12:23:25;;;;;;;;;;;1.50;67.60;;;;;;6259780;28;19910;-59
2021/12/08 12:26:36;;;;;;;;;;;1.40;68.30;;;;;;6207914;28;19916;-59
2021/12/08 12:29:43;;;;;;;;;;;1.30;68.30;;;;;;6203103;28;20013;-60
2021/12/08 12:32:46;;;;;;;;;;;1.30;70.10;;;;;;6200703;28;19955;-60
2021/12/08 12:35:52;;;;;;;;;;;1.20;67.70;;;;;;6234887;28;19909;-60
2021/12/08 12:38:53;;;;;;;;;;;1.20;68.50;;;;;;6226394;28;19932;-60
2021/12/08 12:41:59;;;;;;;;;;;1.30;69.00;;;;;;6221408;28;19983;-60
2021/12/08 12:45:01;;;;;;;;;;;1.40;69.40;;;;;;6237538;28;20015;-60
2021/12/08 12:48:17;;;;;;;;;;;1.40;67.80;;;;;;6252668;28;19952;-60
2021/12/08 12:51:19;;;;;;;;;;;1.40;69.30;;;;;;6192551;28;19980;-60
2021/12/08 12:54:23;;;;;;;;;;;1.50;67.50;;;;;;6218895;28;19917;-59
2021/12/08 12:57:24;;;;;;;;;;;1.60;67.10;;;;;;6234255;28;19967;-60
2021/12/08 13:00:26;;;;;;;;;;;1.50;66.60;;;;;;6198028;28;19921;-60
2021/12/08 13:04:09;;;;;;;;;;;1.60;68.70;;;;;;6234689;28;20001;-60
2021/12/08 13:07:10;;;;;;;;;;;1.60;68.70;;;;;;6193146;28;19932;-59
2021/12/08 13:10:31;;;;;;;;;;;1.60;68.20;;;;;;6185388;28;19914;-60
2021/12/08 13:13:44;;;;;;;;;;;1.40;68.20;;;;;;6192752;28;20007;-59
2021/12/08 13:16:44;;;;;;;;;;;1.40;70.10;;;;;;6199379;28;19969;-59
2021/12/08 13:19:46;;;;;;;;;;;1.30;68.10;;;;;;6209298;28;19944;-59
2021/12/08 13:22:53;;;;;;;;;;;1.30;69.20;;;;;;6225735;28;19910;-60
2021/12/08 13:26:07;;;;;;;;;;;1.30;70.10;;;;;;6209444;28;19910;-60
2021/12/08 13:29:18;;;;;;;;;;;1.30;69.70;;;;;;6209175;28;19916;-60
2021/12/08 13:32:28;;;;;;;;;;;1.30;70.20;;;;;;6241966;28;19910;-60
2021/12/08 13:35:32;;;;;;;;;;;1.40;70.30;;;;;;6209250;28;19914;-59
2021/12/08 13:38:42;;;;;;;;;;;1.20;69.30;;;;;;6225292;28;19913;-60
2021/12/08 13:41:52;;;;;;;;;;;1.30;69.40;;;;;;6225096;28;20008;-60
2021/12/08 13:44:55;;;;;;;;;;;1.30;69.30;;;;;;6233305;28;19908;-59
2021/12/08 13:48:03;;;;;;;;;;;1.40;69.10;;;;;;6219791;28;19909;-60
2021/12/08 13:51:13;;;;;;;;;;;1.50;68.80;;;;;;6231978;28;19965;-60
2021/12/08 13:54:33;;;;;;;;;;;1.60;69.10;;;;;;6224975;28;19909;-60
2021/12/08 13:57:35;;;;;;;;;;;1.80;69.10;;;;;;6258688;28;19917;-60
2021/12/08 14:00:39;;;;;;;;;;;2.00;69.50;;;;;;6213431;28;19912;-60
2021/12/08 14:03:41;;;;;;;;;;;2.30;66.50;;;;;;6222385;28;20348;-60
2021/12/08 14:06:42;;;;;;;;;;;2.60;63.40;;;;;;6226929;28;19913;-60
2021/12/08 14:09:43;;;;;;;;;;;2.80;63.60;;;;;;6231203;28;19976;-60
2021/12/08 14:12:45;;;;;;;;;;;3.00;64.70;;;;;;6247432;28;19909;-60
2021/12/08 14:15:48;;;;;;;;;;;2.90;62.40;;;;;;6226891;28;19963;-60
2021/12/08 14:18:48;;;;;;;;;;;2.90;63.50;;;;;;6200380;28;19960;-60
2021/12/08 14:21:49;;;;;;;;;;;3.10;63.30;;;;;;6234428;28;20269;-60
2021/12/08 14:24:56;;;;;;;;;;;3.10;61.50;;;;;;6251081;28;19937;-60
2021/12/08 14:27:57;;;;;;;;;;;3.10;62.40;;;;;;6247052;28;19910;-60
2021/12/08 14:30:58;;;;;;;;;;;3.00;63.40;;;;;;6240065;28;19921;-60
2021/12/08 14:33:58;;;;;;;;;;;3.00;62.60;;;;;;6224152;28;19988;-60
2021/12/08 14:37:17;;;;;;;;;;;2.90;62.50;;;;;;6232337;28;19917;-60
2021/12/08 14:40:20;;;;;;;;;;;2.80;62.70;;;;;;6227214;28;19920;-60
2021/12/08 14:43:33;;;;;;;;;;;2.70;63.20;;;;;;6237719;28;19976;-60
2021/12/08 14:46:34;;;;;;;;;;;2.40;64.30;;;;;;6242770;28;19951;-60
2021/12/08 14:49:36;;;;;;;;;;;2.10;65.60;;;;;;6231865;28;19913;-60
2021/12/08 14:52:37;;;;;;;;;;;1.80;68.60;;;;;;6219696;28;19909;-60
2021/12/08 14:55:39;;;;;;;;;;;1.70;71.30;;;;;;6218560;28;19913;-60
2021/12/08 14:58:39;;;;;;;;;;;1.40;71.70;;;;;;6246931;28;20008;-60
2021/12/08 15:01:40;;;;;;;;;;;1.30;71.60;;;;;;6246227;28;19935;-60
2021/12/08 15:04:41;;;;;;;;;;;1.00;72.70;;;;;;6232620;28;19913;-60
2021/12/08 15:07:42;;;;;;;;;;;0.80;72.60;;;;;;6233469;28;19920;-60
2021/12/08 15:10:43;;;;;;;;;;;0.60;74.00;;;;;;6261951;28;19909;-60
2021/12/08 15:13:44;;;;;;;;;;;0.50;75.10;;;;;;6236230;28;20003;-60
2021/12/08 15:16:46;;;;;;;;;;;0.20;74.40;;;;;;6236644;28;19963;-60
2021/12/08 15:19:52;;;;;;;;;;;0.00;74.40;;;;;;6224671;28;19928;-60
2021/12/08 15:22:57;;;;;;;;;;;0.00;76.60;;;;;;6209917;28;19945;-60
2021/12/08 15:26:01;;;;;;;;;;;-3276.70;76.40;;;;;;6220566;28;19979;-61
2021/12/08 15:29:03;;;;;;;;;;;-3276.60;76.90;;;;;;6255628;28;19960;-61
2021/12/08 15:32:04;;;;;;;;;;;-3276.50;77.90;;;;;;6236338;28;19909;-61
2021/12/08 15:35:06;;;;;;;;;;;-3276.40;78.00;;;;;;6236491;28;19938;-61
2021/12/08 15:38:08;;;;;;;;;;;-3276.30;78.70;;;;;;6235904;28;19916;-61
2021/12/08 15:41:10;;;;;;;;;;;-3276.30;78.40;;;;;;6236253;28;19920;-61
2021/12/08 15:44:13;;;;;;;;;;;-3276.30;78.80;;;;;;6245143;28;19909;-61
2021/12/08 15:47:13;;;;;;;;;;;-3276.30;78.60;;;;;;6231680;28;19989;-60
2021/12/08 15:50:18;;;;;;;;;;;-3276.30;78.30;;;;;;6229814;28;19909;-56
2021/12/08 15:53:23;;;;;;;;;;;-3276.30;78.70;;;;;;6256551;28;19917;-58
2021/12/08 15:56:23;;;;;;;;;;;-3276.30;79.60;;;;;;6236899;28;19920;-59
2021/12/08 15:59:26;;;;;;;;;;;-3276.30;79.20;;;;;;6224608;28;20012;-59
2021/12/08 16:02:28;;;;;;;;;;;-3276.20;79.40;;;;;;6228722;28;19909;-59
2021/12/08 16:05:29;;;;;;;;;;;-3276.20;79.90;;;;;;6230446;28;19909;-57
2021/12/08 16:08:29;;;;;;;;;;;-3276.10;80.40;;;;;;6259632;28;19917;-59
2021/12/08 16:11:32;;;;;;;;;;;-3276.00;80.60;;;;;;6204086;28;19917;-58
2021/12/08 16:14:43;;;;;;;;;;;-3275.90;81.50;;;;;;6232041;28;19909;-59
2021/12/08 16:17:43;;;;;;;;;;;-3275.90;81.50;;;;;;6216800;28;20000;-56
2021/12/08 16:20:44;;;;;;;;;;;-3275.80;81.60;;;;;;6251297;28;19924;-60
2021/12/08 16:23:44;;;;;;;;;;;-3275.80;81.90;;;;;;6219150;28;19960;-56
2021/12/08 16:26:46;;;;;;;;;;;-3275.80;81.50;;;;;;6221814;28;19959;-57
2021/12/08 16:29:48;;;;;;;;;;;-3275.80;82.10;;;;;;6227086;28;19913;-57
2021/12/08 16:32:49;;;;;;;;;;;-3275.70;82.10;;;;;;6227920;28;19909;-56
2021/12/08 16:35:49;;;;;;;;;;;-3275.70;82.30;;;;;;6228619;28;19944;-58
2021/12/08 16:38:50;;;;;;;;;;;-3275.70;82.80;;;;;;6209826;28;20056;-58
2021/12/08 16:45:11;;;;;;;;;;;-3275.60;82.30;;;;;;6257205;28;19964;-58
2021/12/08 16:48:14;;;;;;;;;;;-3275.60;82.30;;;;;;6229529;28;19909;-58
2021/12/08 16:51:15;;;;;;;;;;;-3275.50;82.00;;;;;;6226291;28;19910;-58
2021/12/08 16:54:16;;;;;;;;;;;-3275.50;82.10;;;;;;6191763;28;19917;-56
2021/12/08 16:57:17;;;;;;;;;;;-3275.50;82.20;;;;;;6242566;28;19917;-58
2021/12/08 17:00:21;;;;;;;;;;;-3275.50;82.30;;;;;;6242044;28;19936;-58
2021/12/08 17:03:23;;;;;;;;;;;-3275.50;82.30;;;;;;6234676;28;19915;-56
2021/12/08 17:06:24;;;;;;;;;;;-3275.50;82.80;;;;;;6234013;28;19952;-56
2021/12/08 17:09:24;;;;;;;;;;;-3275.40;83.00;;;;;;6230959;28;19918;-58
2021/12/08 17:12:25;;;;;;;;;;;-3275.40;83.20;;;;;;6231584;28;19963;-58
2021/12/08 17:15:27;;;;;;;;;;;-3275.40;83.20;;;;;;6234177;28;19913;-58
2021/12/08 17:18:29;;;;;;;;;;;-3275.40;83.30;;;;;;6250375;28;19935;-59
2021/12/08 17:21:30;;;;;;;;;;;-3275.40;83.60;;;;;;6233153;28;19927;-56
2021/12/08 17:24:35;;;;;;;;;;;-3275.50;83.60;;;;;;6214258;28;19921;-57
2021/12/08 17:27:36;;;;;;;;;;;-3275.50;83.80;;;;;;6208900;28;19909;-55
2021/12/08 17:30:37;;;;;;;;;;;-3275.60;83.80;;;;;;6244552;28;19920;-58
2021/12/08 17:33:41;;;;;;;;;;;-3275.60;83.40;;;;;;6205685;28;19909;-58
2021/12/08 17:36:42;;;;;;;;;;;-3275.70;83.30;;;;;;6209164;28;19909;-53
2021/12/08 17:39:43;;;;;;;;;;;-3275.60;83.30;;;;;;6228745;28;19963;-53
2021/12/08 17:42:50;;;;;;;;;;;-3275.70;83.40;;;;;;6261614;28;19920;-56
2021/12/08 17:45:50;;;;;;;;;;;-3275.70;83.70;;;;;;6224563;28;19913;-54
2021/12/08 17:48:51;;;;;;;;;;;-3275.70;83.70;;;;;;6233313;28;20051;-54
2021/12/08 17:51:52;;;;;;;;;;;-3275.70;83.50;;;;;;6232184;28;19909;-52
2021/12/08 17:54:53;;;;;;;;;;;-3275.80;83.40;;;;;;6223306;28;19920;-54